Fantasia — ICJY — position and weather

sailwx.info

Track history (hours):
 
Tides and Currents Weather Stations Pressure Air Temp Water Temp Dewpoint Dewpoint Depression Visibility Wind Speed Wind Dir Waves Ship Positions

Fantasia

Last reported at 2015-Mar-03 20:33 UTC. Time now 2015-Mar-04 04:26 UTC.
Position N 47°59' W 005°27'.

; draft 12.7 m.

Type: Tanker. MMSI: 247279600.

Date/timePositionNaut miles runAvg speedWind from/ knotsBaromVisibWave heightAir tempDewpointWater temp
2015-Mar-03 20:33N 47°59' W 005°27'206 9.6
2015-Mar-02 23:03N 50°15' W 001°31'1112.8
2015-Mar-02 22:12N 50°18' W 001°15'912.1
2015-Mar-02 21:28N 50°20' W 001°02'1011.0
2015-Mar-02 20:33N 50°24' W 000°47'10 9.7
2015-Mar-02 19:33N 50°26' W 000°32'10 9.8
2015-Mar-02 18:30N 50°28' W 000°17'1010.1
2015-Mar-02 17:30N 50°31' W 000°01'1111.3
2015-Mar-02 16:31N 50°34' E 000°16'1111.9
2015-Mar-02 15:33N 50°38' E 000°33'1212.1
2015-Mar-02 14:33N 50°44' E 000°49'1212.3
2015-Mar-02 13:33N 50°52' E 001°04'1211.6
2015-Mar-02 12:34N 50°59' E 001°18'1110.5
2015-Mar-02 11:33N 51°06' E 001°31'1010.0
2015-Mar-02 10:33N 51°12' E 001°43'1111.0
2015-Mar-02 09:34N 51°21' E 001°53'1211.5
2015-Mar-02 08:34N 51°31' E 002°04'1312.8
2015-Mar-02 07:34N 51°40' E 002°17'459 9.9
2015-Feb-28 09:03N 57°48' E 010°13'611.9
2015-Feb-28 08:33N 57°49' E 010°24'1110.7
2015-Feb-28 07:33N 57°48' E 010°44'9 9.2
2015-Feb-28 06:33N 57°43' E 010°58'1414.1
2015-Feb-28 05:33N 57°33' E 011°17'1413.7
2015-Feb-28 04:33N 57°21' E 011°30'1313.3
2015-Feb-28 03:33N 57°09' E 011°39'1313.3
2015-Feb-28 02:33N 56°56' E 011°47'1312.8
2015-Feb-28 01:33N 56°44' E 011°53'1313.0
2015-Feb-28 00:33N 56°33' E 011°41'1313.4
2015-Feb-27 23:33N 56°21' E 011°28'1413.3
2015-Feb-27 22:29N 56°09' E 011°14'9011.4
2015-Feb-27 14:31N 54°40' E 010°50'1313.6
2015-Feb-27 13:33N 54°36' E 011°11'1313.3
2015-Feb-27 12:33N 54°30' E 011°32'1313.1
2015-Feb-27 11:33N 54°27' E 011°53'1211.8
2015-Feb-27 10:33N 54°30' E 012°13'1212.4
2015-Feb-27 09:33N 54°40' E 012°26'1312.8
2015-Feb-27 08:33N 54°47' E 012°44'1312.9
2015-Feb-27 07:33N 54°52' E 013°05'1312.8
2015-Feb-27 06:33N 54°56' E 013°26'1312.8
2015-Feb-27 05:33N 55°00' E 013°47'1212.5
2015-Feb-27 04:33N 55°06' E 014°06'1312.9
2015-Feb-27 03:33N 55°16' E 014°20'1312.6
2015-Feb-27 02:33N 55°26' E 014°34'1313.0
2015-Feb-27 01:33N 55°33' E 014°53'1312.7
2015-Feb-27 00:33N 55°39' E 015°13'1312.6
2015-Feb-26 23:33N 55°42' E 015°35'1713.1
2015-Feb-26 22:15N 55°46' E 016°04'3713.2
2015-Feb-26 19:27N 55°54' E 017°09'1313.1
2015-Feb-26 18:28N 55°58' E 017°31'1312.9
2015-Feb-26 17:25N 56°03' E 017°53'  
2015-Feb-23 06:33N 55°39' E 015°44'1413.7
2015-Feb-23 05:33N 55°34' E 015°21'1414.0
2015-Feb-23 04:33N 55°29' E 014°59'1413.8
2015-Feb-23 03:33N 55°22' E 014°37'1413.7
2015-Feb-23 02:33N 55°11' E 014°22'1312.9
2015-Feb-23 01:33N 55°10' E 013°59'1313.3
2015-Feb-23 00:33N 55°11' E 013°36'1313.4
2015-Feb-22 23:33N 55°12' E 013°13'1313.3
2015-Feb-22 22:33N 55°15' E 012°50'1010.3
2015-Feb-22 21:33N 55°23' E 012°38'9 9.2
2015-Feb-22 20:33N 55°32' E 012°45'1010.3
2015-Feb-22 19:33N 55°40' E 012°56'1313.0
2015-Feb-22 18:33N 55°51' E 012°45'1313.0
2015-Feb-22 17:33N 56°04' E 012°38'9 8.6
2015-Feb-22 16:33N 56°09' E 012°26'1313.0
2015-Feb-22 15:33N 56°17' E 012°07'1413.3
2015-Feb-22 14:32N 56°29' E 011°59'1313.3
2015-Feb-22 13:33N 56°42' E 011°54'1413.6
2015-Feb-22 12:33N 56°55' E 011°46'1313.4
2015-Feb-22 11:33N 57°08' E 011°38'1413.7
2015-Feb-22 10:33N 57°20' E 011°28'32 3.6
2015-Feb-22 01:33N 57°41' E 010°43'6 6.1
2015-Feb-22 00:33N 57°47' E 010°46'1313.5
2015-Feb-21 23:34N 57°48' E 010°21'1713.7
2015-Feb-21 22:19N 57°46' E 009°49'  
Track history (hours):
 
Tides and Currents Weather Stations Pressure Air Temp Water Temp Dewpoint Dewpoint Depression Visibility Wind Speed Wind Dir Waves Ship Positions

Fantasia

Last reported at 2015-Mar-03 20:33 UTC. Time now 2015-Mar-04 04:26 UTC.
Position N 47°59' W 005°27'.

; draft 12.7 m.

Type: Tanker. MMSI: 247279600.

Date/timePositionNaut miles runAvg speedWind from/ knotsBaromVisibWave heightAir tempDewpointWater temp
2015-Mar-03 20:33N 47°59' W 005°27'206 9.6
2015-Mar-02 23:03N 50°15' W 001°31'1112.8
2015-Mar-02 22:12N 50°18' W 001°15'912.1
2015-Mar-02 21:28N 50°20' W 001°02'1011.0
2015-Mar-02 20:33N 50°24' W 000°47'10 9.7
2015-Mar-02 19:33N 50°26' W 000°32'10 9.8
2015-Mar-02 18:30N 50°28' W 000°17'1010.1
2015-Mar-02 17:30N 50°31' W 000°01'1111.3
2015-Mar-02 16:31N 50°34' E 000°16'1111.9
2015-Mar-02 15:33N 50°38' E 000°33'1212.1
2015-Mar-02 14:33N 50°44' E 000°49'1212.3
2015-Mar-02 13:33N 50°52' E 001°04'1211.6
2015-Mar-02 12:34N 50°59' E 001°18'1110.5
2015-Mar-02 11:33N 51°06' E 001°31'1010.0
2015-Mar-02 10:33N 51°12' E 001°43'1111.0
2015-Mar-02 09:34N 51°21' E 001°53'1211.5
2015-Mar-02 08:34N 51°31' E 002°04'1312.8
2015-Mar-02 07:34N 51°40' E 002°17'459 9.9
2015-Feb-28 09:03N 57°48' E 010°13'611.9
2015-Feb-28 08:33N 57°49' E 010°24'1110.7
2015-Feb-28 07:33N 57°48' E 010°44'9 9.2
2015-Feb-28 06:33N 57°43' E 010°58'1414.1
2015-Feb-28 05:33N 57°33' E 011°17'1413.7
2015-Feb-28 04:33N 57°21' E 011°30'1313.3
2015-Feb-28 03:33N 57°09' E 011°39'1313.3
2015-Feb-28 02:33N 56°56' E 011°47'1312.8
2015-Feb-28 01:33N 56°44' E 011°53'1313.0
2015-Feb-28 00:33N 56°33' E 011°41'1313.4
2015-Feb-27 23:33N 56°21' E 011°28'1413.3
2015-Feb-27 22:29N 56°09' E 011°14'9011.4
2015-Feb-27 14:31N 54°40' E 010°50'1313.6
2015-Feb-27 13:33N 54°36' E 011°11'1313.3
2015-Feb-27 12:33N 54°30' E 011°32'1313.1
2015-Feb-27 11:33N 54°27' E 011°53'1211.8
2015-Feb-27 10:33N 54°30' E 012°13'1212.4
2015-Feb-27 09:33N 54°40' E 012°26'1312.8
2015-Feb-27 08:33N 54°47' E 012°44'1312.9
2015-Feb-27 07:33N 54°52' E 013°05'1312.8
2015-Feb-27 06:33N 54°56' E 013°26'1312.8
2015-Feb-27 05:33N 55°00' E 013°47'1212.5
2015-Feb-27 04:33N 55°06' E 014°06'1312.9
2015-Feb-27 03:33N 55°16' E 014°20'1312.6
2015-Feb-27 02:33N 55°26' E 014°34'1313.0
2015-Feb-27 01:33N 55°33' E 014°53'1312.7
2015-Feb-27 00:33N 55°39' E 015°13'1312.6
2015-Feb-26 23:33N 55°42' E 015°35'1713.1
2015-Feb-26 22:15N 55°46' E 016°04'3713.2
2015-Feb-26 19:27N 55°54' E 017°09'1313.1
2015-Feb-26 18:28N 55°58' E 017°31'1312.9
2015-Feb-26 17:25N 56°03' E 017°53'  
2015-Feb-23 06:33N 55°39' E 015°44'1413.7
2015-Feb-23 05:33N 55°34' E 015°21'1414.0
2015-Feb-23 04:33N 55°29' E 014°59'1413.8
2015-Feb-23 03:33N 55°22' E 014°37'1413.7
2015-Feb-23 02:33N 55°11' E 014°22'1312.9
2015-Feb-23 01:33N 55°10' E 013°59'1313.3
2015-Feb-23 00:33N 55°11' E 013°36'1313.4
2015-Feb-22 23:33N 55°12' E 013°13'1313.3
2015-Feb-22 22:33N 55°15' E 012°50'1010.3
2015-Feb-22 21:33N 55°23' E 012°38'9 9.2
2015-Feb-22 20:33N 55°32' E 012°45'1010.3
2015-Feb-22 19:33N 55°40' E 012°56'1313.0
2015-Feb-22 18:33N 55°51' E 012°45'1313.0
2015-Feb-22 17:33N 56°04' E 012°38'9 8.6
2015-Feb-22 16:33N 56°09' E 012°26'1313.0
2015-Feb-22 15:33N 56°17' E 012°07'1413.3
2015-Feb-22 14:32N 56°29' E 011°59'1313.3
2015-Feb-22 13:33N 56°42' E 011°54'1413.6
2015-Feb-22 12:33N 56°55' E 011°46'1313.4
2015-Feb-22 11:33N 57°08' E 011°38'1413.7
2015-Feb-22 10:33N 57°20' E 011°28'32 3.6
2015-Feb-22 01:33N 57°41' E 010°43'6 6.1
2015-Feb-22 00:33N 57°47' E 010°46'1313.5
2015-Feb-21 23:34N 57°48' E 010°21'1713.7
2015-Feb-21 22:19N 57°46' E 009°49'  

Dump ship's entire track history